Airfield :
LOGIN :

Register | Disclaimer

   EN    FR    IT 

 










Legend :    VFR   Marginal VFR   IFR   Intensive IFR   Very Intensive IFR
Visi :
Ceiling :
>= 8 km
>= 3000ft
5 to 8 km
1000 to 3000 ft
1500m to 5 km
500 to 1000 ft
800 to 1500m
200 to 500 ft
< 800m
< 200 ft
Symbols :   Thunderstorms  Fog  Heavy snow  Heavy precipitations  Wind > 20 kt
SIGMETs :     Misc.  Thunderstorms  Icing  Turbulence  Mountain Waves  Volcanic Ashes







- Airport Elevation : 359 ft
- IATA code : BVA
- Download approach charts


LFOB - Beauvais

CURRENT METAR :
  • 190700Z AUTO 12006KT 9999 SCT049 BKN070 BKN100 11/11 Q1008 NOSIG

EXPIRED METARs :
  • 190630Z AUTO 13006KT 8000 FEW012 OVC100 11/10 Q1008 NOSIG
  • 190600Z AUTO 08003KT 9000 NSC 09/09 Q1008 NOSIG
  • 190530Z AUTO 11003KT 8000 NSC 09/08 Q1008 NOSIG
  • 190500Z AUTO 11004KT 7000 NSC 08/08 Q1008 TEMPO 1200 BCFG
  • 190430Z AUTO 10003KT 9000 NSC 08/07 Q1009 TEMPO 1200 BCFG

TAF TAF LFOB
Valid from the 19 at 06:00 until the 20 at 06:00 UTC


190500Z 1906/2006 10003KT 8000 NSC
BECMG 1906/1908 9999 NSW
BECMG 1909/1911 18013KT
TEMPO 2001/2005 20015G25KT 4000 RA BKN012
ATIS : +33 3 44 11 49 28
No reported NOTAMs for that airfield.



MET'MAP, your aeronautical weather chart ! - Copyright ORBIFLY December 2007 - Disclaimer

ORBIFLY MET'MAP TEAM :

Programming & Development : Alexandra Zaïnal
Concept & Development : Baudouin d'Aumeries
Co-Development & Prog : Marc-Olivier Méhu
Technical & hardware support : Manuel Goepfert

Contact : metmap@orbifly.com




SOURCES & CREDITS :

   NOAA